Reno, NV

1:43 PM PDT on September 20, 2014 (GMT -0700)
Thomas Creek Estates | Change Station
CLOSE
Current Station
Personal Weather Station
Location: Reno, NV
Elevation: 4984 ft
Nearby Weather Stations

Elev 4984 ft 39.42 °N, 119.79 °W | Updated 5 seconds ago

Partly Cloudy
Partly Cloudy
83.7 °F
Feels Like 81 °F
N
3.0
Wind Variable Wind from East
Gusts 13.0 mph

Today
High -- | Low -- °F
--% Chance of Precip.
Yesterday
High -- | Low -- °F
Precip. -- in
6:44 AM 6:59 PM
Waning Crescent, 10% visible
Pressure 29.90 in
Visibility 10.0 miles
Clouds Few 8500 ft
Few 12000 ft
Mostly Cloudy 21000 ft
Heat Index 81 °F
Dew Point 44 °F
Humidity 25%
Rainfall 0.00 in
Snow Depth 0 in , 0 in , 0 in
UV 5 out of 12
Pollen 6.70 out of 12
Air Quality Not available.
Flu Activity Not available.
METAR KRNO 201955Z 00000KT 10SM FEW085 FEW120 BKN210 29/03 A3007 RMK AO2 SLP125 T02940028

More Conditions Fewer Conditions

Pressure 29.90 in
Visibility 10.0 miles
Clouds Few 8500 ft
Few 12000 ft
Mostly Cloudy 21000 ft
Heat Index 81 °F
Dew Point 44 °F
Humidity 25%
Rainfall 0.00 in
Snow Depth 0 in , 0 in , 0 in
UV 5 out of 12
Pollen 6.70 out of 12
Air Quality Not available.
Flu Activity Not available.
METAR KRNO 201955Z 00000KT 10SM FEW085 FEW120 BKN210 29/03 A3007 RMK AO2 SLP125 T02940028

More Conditions Fewer Conditions

10-Day Weather Forecast

Almanac

Astronomy

Sep. 20, 2014 Rise Set
Actual Time 6:44 AM PDT 6:59 PM PDT
Civil Twilight 6:18 AM PDT 7:25 PM PDT
Nautical Twilight 5:46 AM PDT 7:57 PM PDT
Astronomical Twilight 5:14 AM PDT 8:29 PM PDT
Moon 3:29 AM PDT 5:04 PM PDT
Length of Visible Light 13h 07m
Length of Day
12h 14m
Tomorrow will be 2m 33s shorter.
Waning Crescent, 10% of the Moon is Illuminated
Today
Waning Crescent
Sep 24
New
Oct 1
First Quarter
Oct 8
Full
Oct 15
Last Quarter

Today's Extremes

State Highs State Lows

Community

WunderPhotos

Upload Photos

1,754,945 photos uploaded!

WunderBlogs® & News

Nearby

Snow Depth

Station Depth Elevation
Seventysix Creek 0 in 7100 ft
Taylor Canyon 0 in 6200 ft
Marlette Lake 0 in 8000 ft
Lamance Creek 0 in 6000 ft
Jacks Peak 4 in 8420 ft

Earthquake Activity

City Distance Mag. Time & Date
Gabbs, Nevada 91 miles 3.3 4:37 AM PDT
2014-09-19
Livermore, California 158 miles 2.6 3:37 AM PDT
2014-09-19
Minimum magnitude displayed is 2.5.

Coastal Water Temperatures

Place Temperature
No Stations Reporting

Nearby Weather Stations